Time;durP1;ratioP1;P1;durP2;ratioP2;P2;SDS_P1;SDS_P2;PMS_P1;PMS_P2;Temp;Humidity;BMP_temperature;BMP_pressure;BME280_temperature;BME280_humidity;BME280_pressure;Samples;Min_cycle;Max_cycle;Signal;HPM_P1;HPM_P2
2021/03/25 00:00:12;;;;;;;79.72;41.13;;;;;;;;;;5048755;28;20052;-86
2021/03/25 00:02:38;;;;;;;85.22;42.50;;;;;;;;;;5051041;28;20033;-86
2021/03/25 00:05:05;;;;;;;83.55;41.78;;;;;;;;;;5067607;28;20033;-86
2021/03/25 00:07:31;;;;;;;84.35;43.13;;;;;;;;;;5052653;28;20147;-86
2021/03/25 00:09:57;;;;;;;99.07;45.13;;;;;;;;;;5044585;28;20028;-87
2021/03/25 00:12:23;;;;;;;85.32;41.58;;;;;;;;;;5049789;28;20024;-86
2021/03/25 00:14:49;;;;;;;81.75;41.72;;;;;;;;;;5051032;28;20366;-86
2021/03/25 00:17:15;;;;;;;81.38;40.80;;;;;;;;;;5068426;28;20025;-86
2021/03/25 00:19:41;;;;;;;81.38;39.25;;;;;;;;;;5073577;28;20488;-86
2021/03/25 00:22:08;;;;;;;86.13;42.78;;;;;;;;;;5081501;28;20045;-86
2021/03/25 00:24:34;;;;;;;78.88;41.03;;;;;;;;;;5050666;28;20035;-85
2021/03/25 00:27:00;;;;;;;78.65;42.08;;;;;;;;;;5049117;28;20039;-85
2021/03/25 00:29:26;;;;;;;83.50;43.53;;;;;;;;;;5050429;28;20120;-86
2021/03/25 00:31:52;;;;;;;90.45;45.28;;;;;;;;;;5050732;28;20037;-86
2021/03/25 00:34:18;;;;;;;87.38;43.92;;;;;;;;;;5067592;28;20099;-86
2021/03/25 00:36:44;;;;;;;95.30;46.58;;;;;;;;;;5047614;28;20356;-86
2021/03/25 00:39:11;;;;;;;91.95;45.05;;;;;;;;;;5053280;28;20029;-86
2021/03/25 00:41:37;;;;;;;86.55;43.42;;;;;;;;;;5051401;28;20074;-85
2021/03/25 00:44:07;;;;;;;83.85;42.55;;;;;;;;;;5050750;28;20033;-85
2021/03/25 00:46:34;;;;;;;88.35;44.40;;;;;;;;;;5049612;28;20032;-86
2021/03/25 00:49:01;;;;;;;89.40;44.20;;;;;;;;;;5051515;28;20029;-86
2021/03/25 00:51:28;;;;;;;87.90;45.50;;;;;;;;;;5038056;28;20509;-86
2021/03/25 00:53:54;;;;;;;83.47;42.88;;;;;;;;;;5050384;28;20473;-86
2021/03/25 00:56:19;;;;;;;87.25;45.33;;;;;;;;;;5066617;28;20159;-86
2021/03/25 00:58:45;;;;;;;82.82;42.30;;;;;;;;;;5039501;28;20158;-86
2021/03/25 01:01:12;;;;;;;77.95;42.13;;;;;;;;;;5041131;28;20037;-86
2021/03/25 01:03:37;;;;;;;91.72;43.50;;;;;;;;;;5050177;28;20074;-86
2021/03/25 01:06:04;;;;;;;82.55;41.60;;;;;;;;;;5050353;28;20024;-86
2021/03/25 01:08:30;;;;;;;85.70;42.33;;;;;;;;;;5074400;28;20025;-86
2021/03/25 01:10:59;;;;;;;84.95;42.38;;;;;;;;;;5055130;28;20029;-86
2021/03/25 01:13:29;;;;;;;88.95;43.60;;;;;;;;;;5052577;28;20025;-86
2021/03/25 01:15:55;;;;;;;81.53;41.92;;;;;;;;;;5048636;28;20071;-86
2021/03/25 01:18:21;;;;;;;89.80;42.58;;;;;;;;;;5055209;28;20468;-86
2021/03/25 01:20:47;;;;;;;82.40;43.75;;;;;;;;;;5070708;28;20115;-86
2021/03/25 01:23:13;;;;;;;85.22;43.17;;;;;;;;;;5069971;28;20098;-86
2021/03/25 01:25:40;;;;;;;81.22;41.60;;;;;;;;;;5052378;28;20552;-85
2021/03/25 01:28:07;;;;;;;89.30;42.40;;;;;;;;;;5076889;28;20040;-85
2021/03/25 01:30:34;;;;;;;84.35;43.15;;;;;;;;;;5049111;28;20111;-86
2021/03/25 01:33:00;;;;;;;89.80;44.85;;;;;;;;;;5069886;28;20028;-86
2021/03/25 01:35:29;;;;;;;81.22;40.72;;;;;;;;;;5056222;28;20029;-85
2021/03/25 01:37:55;;;;;;;86.30;44.05;;;;;;;;;;5054470;28;20029;-86
2021/03/25 01:40:21;;;;;;;79.40;41.10;;;;;;;;;;5053547;28;20087;-85
2021/03/25 01:42:47;;;;;;;77.85;40.03;;;;;;;;;;5047569;28;20029;-85
2021/03/25 01:45:29;;;;;;;76.78;38.55;;;;;;;;;;5069824;28;20044;-86
2021/03/25 01:47:56;;;;;;;87.32;41.35;;;;;;;;;;5053344;28;20106;-86
2021/03/25 01:50:22;;;;;;;85.38;40.88;;;;;;;;;;5042553;28;20119;-86
2021/03/25 01:53:06;;;;;;;80.70;39.13;;;;;;;;;;5069462;28;20156;-85
2021/03/25 01:55:39;;;;;;;86.97;40.95;;;;;;;;;;5052139;28;20025;-86
2021/03/25 01:58:14;;;;;;;76.80;38.00;;;;;;;;;;5069551;28;20035;-86
2021/03/25 02:00:49;;;;;;;74.50;38.83;;;;;;;;;;5074140;28;20472;-85
2021/03/25 02:03:23;;;;;;;82.05;39.28;;;;;;;;;;5069446;28;20033;-85
2021/03/25 02:06:00;;;;;;;82.47;40.70;;;;;;;;;;5070208;28;20033;-86
2021/03/25 02:08:52;;;;;;;85.68;41.08;;;;;;;;;;5065276;28;20020;-85
2021/03/25 02:11:24;;;;;;;77.88;39.40;;;;;;;;;;5069866;28;20041;-85
2021/03/25 02:14:14;;;;;;;77.15;40.95;;;;;;;;;;5088830;28;20027;-85
2021/03/25 02:16:42;;;;;;;76.72;38.55;;;;;;;;;;5062213;28;20039;-85
2021/03/25 02:19:18;;;;;;;82.55;41.15;;;;;;;;;;5073348;28;20025;-85
2021/03/25 02:22:03;;;;;;;82.97;40.17;;;;;;;;;;5073663;28;20394;-86
2021/03/25 02:24:33;;;;;;;83.47;40.97;;;;;;;;;;5073605;28;20033;-85
2021/03/25 02:26:59;;;;;;;87.95;41.80;;;;;;;;;;5072703;28;20025;-85
2021/03/25 02:29:38;;;;;;;80.25;40.15;;;;;;;;;;5071691;28;20032;-85
2021/03/25 02:32:06;;;;;;;84.35;40.85;;;;;;;;;;5070894;28;20032;-86
2021/03/25 02:34:34;;;;;;;81.05;40.80;;;;;;;;;;5071900;28;20035;-86
2021/03/25 02:37:07;;;;;;;83.82;41.35;;;;;;;;;;5070817;28;20025;-85
2021/03/25 02:39:43;;;;;;;83.32;40.50;;;;;;;;;;5071869;28;20024;-85
2021/03/25 02:42:11;;;;;;;78.60;40.58;;;;;;;;;;5071946;28;20043;-85
2021/03/25 02:44:40;;;;;;;82.50;42.25;;;;;;;;;;5070672;28;20059;-86
2021/03/25 02:47:08;;;;;;;90.15;43.70;;;;;;;;;;5060466;28;20032;-85
2021/03/25 02:49:37;;;;;;;83.72;39.95;;;;;;;;;;5071260;28;20070;-85
2021/03/25 02:52:19;;;;;;;87.32;42.20;;;;;;;;;;5068252;28;20021;-85
2021/03/25 02:54:45;;;;;;;85.22;41.70;;;;;;;;;;5068573;28;20526;-85
2021/03/25 02:57:11;;;;;;;86.72;42.78;;;;;;;;;;5058827;28;20017;-85
2021/03/25 02:59:41;;;;;;;90.30;43.03;;;;;;;;;;5077578;28;20009;-86
2021/03/25 03:02:16;;;;;;;89.10;42.22;;;;;;;;;;5071052;28;20063;-86
2021/03/25 03:04:44;;;;;;;89.68;42.42;;;;;;;;;;5062725;28;20090;-86
2021/03/25 03:07:31;;;;;;;93.22;42.70;;;;;;;;;;5051111;28;20026;-86
2021/03/25 03:10:00;;;;;;;89.60;41.15;;;;;;;;;;5069852;28;20035;-86
2021/03/25 03:12:31;;;;;;;87.55;42.67;;;;;;;;;;5069522;28;20033;-87
2021/03/25 03:15:01;;;;;;;89.80;42.42;;;;;;;;;;5056749;28;20025;-87
2021/03/25 03:17:39;;;;;;;85.65;41.95;;;;;;;;;;5070869;28;20029;-86
2021/03/25 03:20:12;;;;;;;89.40;42.53;;;;;;;;;;5070514;28;20025;-86
2021/03/25 03:22:38;;;;;;;85.33;41.40;;;;;;;;;;5060735;28;20041;-86
2021/03/25 03:25:13;;;;;;;88.60;41.65;;;;;;;;;;5052398;28;20279;-86
2021/03/25 03:27:42;;;;;;;84.30;41.33;;;;;;;;;;5068047;28;20793;-87
2021/03/25 03:30:13;;;;;;;89.10;41.70;;;;;;;;;;5076344;28;20055;-87
2021/03/25 03:32:45;;;;;;;86.22;40.70;;;;;;;;;;5068942;28;20021;-87
2021/03/25 03:35:17;;;;;;;92.78;42.08;;;;;;;;;;5077910;28;20037;-87
2021/03/25 03:37:45;;;;;;;86.88;42.15;;;;;;;;;;5094027;28;20012;-86
2021/03/25 03:40:15;;;;;;;98.38;44.70;;;;;;;;;;5080581;28;20048;-86
2021/03/25 03:42:42;;;;;;;90.63;42.63;;;;;;;;;;5072954;28;20090;-86
2021/03/25 03:45:10;;;;;;;82.88;41.92;;;;;;;;;;5073998;28;20050;-86
2021/03/25 03:47:37;;;;;;;88.07;40.25;;;;;;;;;;5073183;28;20089;-86
2021/03/25 03:50:13;;;;;;;93.15;42.05;;;;;;;;;;5077000;28;20113;-86
2021/03/25 03:52:40;;;;;;;85.18;41.03;;;;;;;;;;5072603;28;20039;-86
2021/03/25 03:55:07;;;;;;;83.00;41.53;;;;;;;;;;5056703;28;20084;-85
2021/03/25 03:57:52;;;;;;;86.38;40.60;;;;;;;;;;5077630;28;20036;-86
2021/03/25 04:00:27;;;;;;;91.13;42.58;;;;;;;;;;5074060;28;20021;-86
2021/03/25 04:02:58;;;;;;;81.25;40.50;;;;;;;;;;5073870;28;20033;-86
2021/03/25 04:05:29;;;;;;;89.63;42.10;;;;;;;;;;5071590;28;20410;-85
2021/03/25 04:07:59;;;;;;;85.55;42.33;;;;;;;;;;5071873;28;20087;-86
2021/03/25 04:10:37;;;;;;;89.82;42.47;;;;;;;;;;5070643;28;20094;-85
2021/03/25 04:13:05;;;;;;;82.63;40.83;;;;;;;;;;5057585;28;20036;-85
2021/03/25 04:15:32;;;;;;;86.60;42.13;;;;;;;;;;5070279;28;20017;-85
2021/03/25 04:18:06;;;;;;;83.38;39.75;;;;;;;;;;5070220;28;20033;-86
2021/03/25 04:20:33;;;;;;;83.15;38.88;;;;;;;;;;5071805;28;20025;-85
2021/03/25 04:23:05;;;;;;;81.07;39.35;;;;;;;;;;5070675;28;20045;-86
2021/03/25 04:25:34;;;;;;;81.15;39.42;;;;;;;;;;5064539;28;20036;-86
2021/03/25 04:28:04;;;;;;;85.22;40.05;;;;;;;;;;5070880;28;20033;-86
2021/03/25 04:30:33;;;;;;;81.55;39.45;;;;;;;;;;5069645;28;20048;-86
2021/03/25 04:32:59;;;;;;;86.60;39.60;;;;;;;;;;5069799;28;20025;-86
2021/03/25 04:35:25;;;;;;;81.22;40.47;;;;;;;;;;5068434;28;20094;-86
2021/03/25 04:37:52;;;;;;;80.75;38.53;;;;;;;;;;5069646;28;20033;-85
2021/03/25 04:40:23;;;;;;;79.72;38.05;;;;;;;;;;5067423;28;20001;-86
2021/03/25 04:42:49;;;;;;;72.28;37.50;;;;;;;;;;5064131;28;20025;-85
2021/03/25 04:45:27;;;;;;;78.55;37.65;;;;;;;;;;5072734;28;20021;-85
2021/03/25 04:47:55;;;;;;;73.15;35.30;;;;;;;;;;5063317;28;20044;-86
2021/03/25 04:50:23;;;;;;;78.03;38.55;;;;;;;;;;5079135;28;20017;-86
2021/03/25 04:52:50;;;;;;;77.13;39.88;;;;;;;;;;5064519;28;20046;-86
2021/03/25 04:55:21;;;;;;;73.38;37.63;;;;;;;;;;5075533;28;20033;-86
2021/03/25 04:57:54;;;;;;;80.53;40.10;;;;;;;;;;5081082;28;20033;-86
2021/03/25 05:00:25;;;;;;;83.93;40.13;;;;;;;;;;5072703;28;20028;-86
2021/03/25 05:02:51;;;;;;;83.25;37.92;;;;;;;;;;5071888;28;20335;-86
2021/03/25 05:05:18;;;;;;;78.78;37.72;;;;;;;;;;5082275;28;20028;-86
2021/03/25 05:07:46;;;;;;;80.03;36.28;;;;;;;;;;5070327;28;20083;-86
2021/03/25 05:10:15;;;;;;;77.78;36.67;;;;;;;;;;5073024;28;20143;-86
2021/03/25 05:12:41;;;;;;;82.50;38.17;;;;;;;;;;5069976;28;20037;-86
2021/03/25 05:15:09;;;;;;;80.78;39.45;;;;;;;;;;5069499;28;20021;-86
2021/03/25 05:17:49;;;;;;;79.90;38.38;;;;;;;;;;5070001;28;20025;-86
2021/03/25 05:20:31;;;;;;;74.25;37.47;;;;;;;;;;5070182;28;20028;-86
2021/03/25 05:23:18;;;;;;;51.97;24.33;;;;;;;;;;5070997;28;20063;-86
2021/03/25 05:25:44;;;;;;;74.03;35.45;;;;;;;;;;5075678;28;20477;-86
2021/03/25 05:28:26;;;;;;;70.03;34.05;;;;;;;;;;5076182;28;20042;-86
2021/03/25 05:30:53;;;;;;;71.43;35.72;;;;;;;;;;5074389;28;20040;-86
2021/03/25 05:33:21;;;;;;;73.22;34.92;;;;;;;;;;5090016;28;20029;-86
2021/03/25 05:35:54;;;;;;;63.05;30.92;;;;;;;;;;5078047;28;20028;-85
2021/03/25 05:38:20;;;;;;;47.47;24.40;;;;;;;;;;5071090;28;20036;-86
2021/03/25 05:40:48;;;;;;;74.88;36.90;;;;;;;;;;5065613;28;20055;-85
2021/03/25 05:43:24;;;;;;;81.03;36.42;;;;;;;;;;5070217;28;20067;-85
2021/03/25 05:46:05;;;;;;;77.68;36.75;;;;;;;;;;5077036;28;20116;-86
2021/03/25 05:48:36;;;;;;;78.53;38.03;;;;;;;;;;5067210;28;20106;-85
2021/03/25 05:51:17;;;;;;;70.47;35.63;;;;;;;;;;5069683;28;20034;-86
2021/03/25 05:53:46;;;;;;;82.13;39.28;;;;;;;;;;5070980;28;20029;-86
2021/03/25 05:56:38;;;;;;;79.40;37.25;;;;;;;;;;5075710;28;20024;-86
2021/03/25 05:59:10;;;;;;;84.80;39.05;;;;;;;;;;5055777;28;20010;-85
2021/03/25 06:01:52;;;;;;;83.95;38.83;;;;;;;;;;5071520;28;20081;-85
2021/03/25 06:04:38;;;;;;;77.45;37.10;;;;;;;;;;5071427;28;20063;-86
2021/03/25 06:07:04;;;;;;;79.45;38.53;;;;;;;;;;5058925;28;20040;-85
2021/03/25 06:09:33;;;;;;;75.03;37.08;;;;;;;;;;5070816;28;20012;-86
2021/03/25 06:11:59;;;;;;;85.03;37.40;;;;;;;;;;5075037;28;20059;-85
2021/03/25 06:14:37;;;;;;;75.80;37.55;;;;;;;;;;5071159;28;20028;-84
2021/03/25 06:17:18;;;;;;;78.53;36.75;;;;;;;;;;5070708;28;20037;-86
2021/03/25 06:19:53;;;;;;;80.90;38.38;;;;;;;;;;5064958;28;20024;-86
2021/03/25 06:22:41;;;;;;;84.20;37.95;;;;;;;;;;5072058;28;20045;-86
2021/03/25 06:25:25;;;;;;;76.28;37.95;;;;;;;;;;5037925;28;20064;-86
2021/03/25 06:28:04;;;;;;;81.05;40.10;;;;;;;;;;5061478;28;20044;-85
2021/03/25 06:30:38;;;;;;;77.15;38.92;;;;;;;;;;5068205;28;20387;-85
2021/03/25 06:33:13;;;;;;;92.65;38.88;;;;;;;;;;5068643;28;20435;-85
2021/03/25 06:35:47;;;;;;;86.70;40.08;;;;;;;;;;5070102;28;20044;-84
2021/03/25 06:38:25;;;;;;;78.40;38.00;;;;;;;;;;5090394;28;20044;-87
2021/03/25 06:40:51;;;;;;;86.82;40.85;;;;;;;;;;5063405;28;20045;-85
2021/03/25 06:43:39;;;;;;;83.60;40.25;;;;;;;;;;5061201;28;20029;-85
2021/03/25 06:46:08;;;;;;;86.20;39.28;;;;;;;;;;5087062;28;20050;-85
2021/03/25 06:48:46;;;;;;;84.43;38.40;;;;;;;;;;5071031;28;20021;-85
2021/03/25 06:51:27;;;;;;;80.35;37.85;;;;;;;;;;5080122;28;20028;-86
2021/03/25 06:53:57;;;;;;;83.35;39.30;;;;;;;;;;5059699;28;20040;-86
2021/03/25 06:56:30;;;;;;;81.70;38.97;;;;;;;;;;5054064;28;20055;-86
2021/03/25 06:58:57;;;;;;;86.57;38.45;;;;;;;;;;5067938;28;20028;-86
2021/03/25 07:01:32;;;;;;;77.55;37.45;;;;;;;;;;5062521;28;20043;-86
2021/03/25 07:04:01;;;;;;;78.53;36.58;;;;;;;;;;5065500;28;20075;-84
2021/03/25 07:06:29;;;;;;;75.03;36.85;;;;;;;;;;5066387;28;20033;-84
2021/03/25 07:08:56;;;;;;;79.75;36.38;;;;;;;;;;5073721;28;20034;-84
2021/03/25 07:11:23;;;;;;;84.70;38.08;;;;;;;;;;5054952;28;20028;-84
2021/03/25 07:13:57;;;;;;;78.50;37.22;;;;;;;;;;5063034;28;20017;-84
2021/03/25 07:16:23;;;;;;;77.25;35.50;;;;;;;;;;5065112;28;20033;-84
2021/03/25 07:18:58;;;;;;;77.60;35.03;;;;;;;;;;5064726;28;20029;-84
2021/03/25 07:21:36;;;;;;;76.50;35.30;;;;;;;;;;5063523;28;20496;-84
2021/03/25 07:24:04;;;;;;;76.97;36.72;;;;;;;;;;5064190;28;20057;-84
2021/03/25 07:26:32;;;;;;;67.25;33.03;;;;;;;;;;5063038;28;20059;-84
2021/03/25 07:29:07;;;;;;;69.65;33.40;;;;;;;;;;5057110;28;20495;-84
2021/03/25 07:31:38;;;;;;;73.70;33.53;;;;;;;;;;5052918;28;20056;-84
2021/03/25 07:34:04;;;;;;;74.20;33.10;;;;;;;;;;5071380;28;20080;-85
2021/03/25 07:36:30;;;;;;;71.75;33.22;;;;;;;;;;5063174;28;20029;-84
2021/03/25 07:39:01;;;;;;;71.65;32.88;;;;;;;;;;5064269;28;20048;-84
2021/03/25 07:41:30;;;;;;;71.45;33.67;;;;;;;;;;5065632;28;20036;-84
2021/03/25 07:44:05;;;;;;;75.97;32.53;;;;;;;;;;5061631;28;20029;-87
2021/03/25 07:46:34;;;;;;;73.60;33.90;;;;;;;;;;5062300;28;20111;-87
2021/03/25 07:49:09;;;;;;;74.32;32.47;;;;;;;;;;5059262;28;20048;-87
2021/03/25 07:51:49;;;;;;;72.45;34.15;;;;;;;;;;5060021;28;20097;-87
2021/03/25 07:54:24;;;;;;;71.82;33.78;;;;;;;;;;5060879;28;20025;-87
2021/03/25 07:56:53;;;;;;;67.25;33.53;;;;;;;;;;5061221;28;20017;-87
2021/03/25 07:59:30;;;;;;;70.50;32.78;;;;;;;;;;5058586;28;20025;-87
2021/03/25 08:01:56;;;;;;;74.38;34.63;;;;;;;;;;5067712;28;20048;-87
2021/03/25 08:04:26;;;;;;;75.68;35.30;;;;;;;;;;5061879;28;20033;-87
2021/03/25 08:07:02;;;;;;;73.18;31.77;;;;;;;;;;5059801;28;20071;-87
2021/03/25 08:09:28;;;;;;;67.55;33.47;;;;;;;;;;5067181;28;20051;-87
2021/03/25 08:11:59;;;;;;;74.93;33.20;;;;;;;;;;5061105;28;20028;-87
2021/03/25 08:14:26;;;;;;;73.93;32.85;;;;;;;;;;5064144;28;20085;-87
2021/03/25 08:16:55;;;;;;;66.47;33.10;;;;;;;;;;5059891;28;20452;-87
2021/03/25 08:19:33;;;;;;;67.38;32.58;;;;;;;;;;5065727;28;20087;-87
2021/03/25 08:22:25;;;;;;;63.30;31.77;;;;;;;;;;5050435;28;20033;-87
2021/03/25 08:25:04;;;;;;;66.90;32.25;;;;;;;;;;5061241;28;20033;-87
2021/03/25 08:27:36;;;;;;;66.00;31.90;;;;;;;;;;5054964;28;20021;-87
2021/03/25 08:30:20;;;;;;;67.68;32.65;;;;;;;;;;5059215;28;20043;-87
2021/03/25 08:32:58;;;;;;;68.88;33.80;;;;;;;;;;5048228;28;20472;-87
2021/03/25 08:35:31;;;;;;;78.25;35.35;;;;;;;;;;5059988;28;20055;-88
2021/03/25 08:38:11;;;;;;;72.10;34.28;;;;;;;;;;5059700;28;20039;-89
2021/03/25 08:40:41;;;;;;;71.28;33.83;;;;;;;;;;5059943;28;20025;-87
2021/03/25 08:43:14;;;;;;;77.22;33.72;;;;;;;;;;5073086;28;20109;-87
2021/03/25 08:45:50;;;;;;;72.55;34.25;;;;;;;;;;5071821;28;20055;-87
2021/03/25 08:48:38;;;;;;;68.65;32.85;;;;;;;;;;5055991;28;20021;-88
2021/03/25 08:51:08;;;;;;;73.28;34.78;;;;;;;;;;5064216;28;20025;-86
2021/03/25 08:53:40;;;;;;;77.47;34.53;;;;;;;;;;5061843;28;20439;-88
2021/03/25 08:56:29;;;;;;;68.03;33.38;;;;;;;;;;5051706;28;20443;-88
2021/03/25 08:58:58;;;;;;;67.20;33.60;;;;;;;;;;5043313;28;20388;-88
2021/03/25 09:01:32;;;;;;;67.63;32.38;;;;;;;;;;5055322;28;20071;-88
2021/03/25 09:04:03;;;;;;;72.25;33.67;;;;;;;;;;5046089;28;20065;-88
2021/03/25 09:06:35;;;;;;;68.95;33.45;;;;;;;;;;5054893;28;20104;-88
2021/03/25 09:09:16;;;;;;;66.22;33.28;;;;;;;;;;5057452;28;20379;-88
2021/03/25 09:11:43;;;;;;;65.10;33.03;;;;;;;;;;5055223;28;20083;-88
2021/03/25 09:14:18;;;;;;;63.55;32.15;;;;;;;;;;5050012;28;20547;-88
2021/03/25 09:16:45;;;;;;;72.03;33.03;;;;;;;;;;5055237;28;20021;-88
2021/03/25 09:19:31;;;;;;;61.40;30.73;;;;;;;;;;5056407;28;20052;-88
2021/03/25 09:21:58;;;;;;;69.20;32.22;;;;;;;;;;5060130;28;20029;-88
2021/03/25 09:24:24;;;;;;;57.83;30.08;;;;;;;;;;5058846;28;20033;-87
2021/03/25 09:26:56;;;;;;;58.95;28.58;;;;;;;;;;5057430;28;20388;-87
2021/03/25 09:29:23;;;;;;;56.05;30.63;;;;;;;;;;5080901;28;20036;-87
2021/03/25 09:31:56;;;;;;;62.25;30.45;;;;;;;;;;5062984;28;20021;-88
2021/03/25 09:34:22;;;;;;;60.05;31.15;;;;;;;;;;5059264;28;20451;-88
2021/03/25 09:36:50;;;;;;;57.42;29.67;;;;;;;;;;5052493;28;20017;-88
2021/03/25 09:39:26;;;;;;;55.72;29.52;;;;;;;;;;5040999;28;20025;-88
2021/03/25 09:41:52;;;;;;;62.22;30.45;;;;;;;;;;5070284;28;20474;-88
2021/03/25 09:44:25;;;;;;;61.72;30.38;;;;;;;;;;5053658;28;20028;-88
2021/03/25 09:47:09;;;;;;;64.63;31.73;;;;;;;;;;5052718;28;20037;-88
2021/03/25 09:49:37;;;;;;;60.95;30.48;;;;;;;;;;5044297;28;20115;-88
2021/03/25 09:52:31;;;;;;;58.42;30.52;;;;;;;;;;5062100;28;20021;-88
2021/03/25 09:55:00;;;;;;;60.20;30.60;;;;;;;;;;5052238;28;20433;-88
2021/03/25 09:57:32;;;;;;;61.08;30.90;;;;;;;;;;5058353;28;20063;-88
2021/03/25 10:00:04;;;;;;;72.07;32.60;;;;;;;;;;5056325;28;20029;-89
2021/03/25 10:02:39;;;;;;;68.30;32.70;;;;;;;;;;5055017;28;20115;-89
2021/03/25 10:05:36;;;;;;;61.38;32.40;;;;;;;;;;5055093;28;20029;-88
2021/03/25 10:08:20;;;;;;;62.35;32.45;;;;;;;;;;5056804;28;20396;-88
2021/03/25 10:10:46;;;;;;;69.03;31.95;;;;;;;;;;5056010;28;20021;-89
2021/03/25 10:13:16;;;;;;;59.22;31.08;;;;;;;;;;5057181;28;20052;-89
2021/03/25 10:15:44;;;;;;;58.05;29.23;;;;;;;;;;5071111;28;20025;-89
2021/03/25 10:18:17;;;;;;;58.90;30.13;;;;;;;;;;5056894;28;20358;-88
2021/03/25 10:20:54;;;;;;;54.33;26.65;;;;;;;;;;5055435;28;20025;-88
2021/03/25 10:23:20;;;;;;;55.38;27.73;;;;;;;;;;5054925;28;20044;-89
2021/03/25 10:25:50;;;;;;;59.70;29.80;;;;;;;;;;5056054;28;20036;-88
2021/03/25 10:28:17;;;;;;;53.85;27.52;;;;;;;;;;5039884;28;20021;-88
2021/03/25 10:30:43;;;;;;;56.30;28.33;;;;;;;;;;5053913;28;20029;-89
2021/03/25 10:33:12;;;;;;;56.17;30.00;;;;;;;;;;5067642;28;20029;-89
2021/03/25 10:35:59;;;;;;;62.25;31.85;;;;;;;;;;5057013;28;20025;-90
2021/03/25 10:38:46;;;;;;;57.63;31.40;;;;;;;;;;5062880;28;20480;-88
2021/03/25 10:41:19;;;;;;;54.42;27.63;;;;;;;;;;5058490;28;20064;-90
2021/03/25 10:43:49;;;;;;;;;;;;;;;;;;5062259;28;20476;-88
2021/03/25 10:46:26;;;;;;;52.75;26.83;;;;;;;;;;5065163;28;19944;-88
2021/03/25 10:48:59;;;;;;;46.42;25.27;;;;;;;;;;5066183;28;20037;-90
2021/03/25 10:51:26;;;;;;;47.90;26.90;;;;;;;;;;5074962;28;20032;-91
2021/03/25 10:53:54;;;;;;;48.42;25.40;;;;;;;;;;5057990;28;20040;-88
2021/03/25 10:56:40;;;;;;;47.35;25.33;;;;;;;;;;5058703;28;20029;-88
2021/03/25 10:59:17;;;;;;;51.67;26.80;;;;;;;;;;5052314;28;20027;-88
2021/03/25 11:01:49;;;;;;;52.70;27.05;;;;;;;;;;5055530;28;20049;-88
2021/03/25 11:04:25;;;;;;;48.92;26.02;;;;;;;;;;5052346;28;20033;-89
2021/03/25 11:06:52;;;;;;;50.25;25.77;;;;;;;;;;5056213;28;20025;-89
2021/03/25 11:09:26;;;;;;;49.85;25.63;;;;;;;;;;5067577;28;20033;-89
2021/03/25 11:11:54;;;;;;;53.75;25.77;;;;;;;;;;5075137;28;20061;-88
2021/03/25 11:14:32;;;;;;;46.53;24.00;;;;;;;;;;5060068;28;20060;-88
2021/03/25 11:17:03;;;;;;;48.08;24.10;;;;;;;;;;5056336;28;20037;-88
2021/03/25 11:19:30;;;;;;;49.03;22.77;;;;;;;;;;5057383;28;20111;-87
2021/03/25 11:21:57;;;;;;;51.45;23.83;;;;;;;;;;5060998;28;20044;-88
2021/03/25 11:24:23;;;;;;;43.47;23.70;;;;;;;;;;5075070;28;20029;-88
2021/03/25 11:26:57;;;;;;;48.05;24.30;;;;;;;;;;5055386;28;20013;-88
2021/03/25 11:29:24;;;;;;;46.38;24.48;;;;;;;;;;5053267;28;20068;-89
2021/03/25 11:32:08;;;;;;;43.22;23.50;;;;;;;;;;5050705;28;20033;-89
2021/03/25 11:34:34;;;;;;;41.53;22.70;;;;;;;;;;5051675;28;20112;-89
2021/03/25 11:37:02;;;;;;;49.08;24.85;;;;;;;;;;5052494;28;20024;-88
2021/03/25 11:39:30;;;;;;;42.20;23.75;;;;;;;;;;5053066;28;20025;-88
2021/03/25 11:41:57;;;;;;;56.05;23.02;;;;;;;;;;5052529;28;20028;-89
2021/03/25 11:44:56;;;;;;;47.67;23.92;;;;;;;;;;5054974;28;20029;-88
2021/03/25 11:47:40;;;;;;;41.95;23.02;;;;;;;;;;4993083;28;20114;-89
2021/03/25 11:50:09;;;;;;;43.17;23.30;;;;;;;;;;5053621;28;20025;-88
2021/03/25 11:52:49;;;;;;;44.25;20.88;;;;;;;;;;5058557;28;20026;-89
2021/03/25 11:55:38;;;;;;;39.72;21.38;;;;;;;;;;5051608;28;20472;-89
2021/03/25 11:58:05;;;;;;;38.30;20.23;;;;;;;;;;5053894;28;20493;-89
2021/03/25 12:00:32;;;;;;;45.55;22.70;;;;;;;;;;5069502;28;20108;-89
2021/03/25 12:02:58;;;;;;;39.65;21.00;;;;;;;;;;5070034;28;20051;-89
2021/03/25 12:05:33;;;;;;;45.92;21.98;;;;;;;;;;5053301;28;20033;-89
2021/03/25 12:08:17;;;;;;;41.33;20.80;;;;;;;;;;5048701;28;20028;-89
2021/03/25 12:10:43;;;;;;;45.70;21.77;;;;;;;;;;5045469;28;20540;-89
2021/03/25 12:13:10;;;;;;;38.00;20.08;;;;;;;;;;5069284;28;20488;-89
2021/03/25 12:15:36;;;;;;;38.13;19.85;;;;;;;;;;5056026;28;20052;-89
2021/03/25 12:18:05;;;;;;;46.05;19.95;;;;;;;;;;5058225;28;20050;-89
2021/03/25 12:20:33;;;;;;;44.47;21.50;;;;;;;;;;5055259;28;21333;-89
2021/03/25 12:23:04;;;;;;;37.72;21.05;;;;;;;;;;5079483;28;20040;-89
2021/03/25 12:25:30;;;;;;;39.58;20.73;;;;;;;;;;5050965;28;20048;-89
2021/03/25 12:27:56;;;;;;;40.50;20.80;;;;;;;;;;5052711;28;20051;-89
2021/03/25 12:30:35;;;;;;;46.92;23.35;;;;;;;;;;5054712;28;20082;-92
2021/03/25 12:33:01;;;;;;;40.13;20.45;;;;;;;;;;5063549;28;20040;-89
2021/03/25 12:35:27;;;;;;;47.33;21.15;;;;;;;;;;5053274;28;20021;-89
2021/03/25 12:37:54;;;;;;;42.10;21.88;;;;;;;;;;5051141;28;20025;-89
2021/03/25 12:40:21;;;;;;;35.85;19.08;;;;;;;;;;5053068;28;20055;-89
2021/03/25 12:42:48;;;;;;;37.50;21.38;;;;;;;;;;5052503;28;20066;-89
2021/03/25 12:45:32;;;;;;;34.50;19.02;;;;;;;;;;5052768;28;20021;-87
2021/03/25 12:47:58;;;;;;;42.53;20.98;;;;;;;;;;5052685;28;20040;-89
2021/03/25 12:50:24;;;;;;;39.72;20.55;;;;;;;;;;5051373;28;20029;-90
2021/03/25 12:52:51;;;;;;;43.30;21.55;;;;;;;;;;5051604;28;20029;-89
2021/03/25 12:55:17;;;;;;;40.28;21.75;;;;;;;;;;5047263;28;20112;-89
2021/03/25 12:57:43;;;;;;;37.20;19.67;;;;;;;;;;5051632;28;20116;-89
2021/03/25 13:00:11;;;;;;;38.75;21.00;;;;;;;;;;5052135;28;20115;-89
2021/03/25 13:02:37;;;;;;;36.85;20.30;;;;;;;;;;5054217;28;20029;-91
2021/03/25 13:05:04;;;;;;;35.08;18.00;;;;;;;;;;5056626;28;20056;-91
2021/03/25 13:07:30;;;;;;;34.95;18.55;;;;;;;;;;5047524;28;20035;-92
2021/03/25 13:09:56;;;;;;;38.53;21.27;;;;;;;;;;5054584;28;20525;-90
2021/03/25 13:12:27;;;;;;;38.22;21.45;;;;;;;;;;5058930;28;20063;-89
2021/03/25 13:14:53;;;;;;;35.53;19.55;;;;;;;;;;5056412;28;20025;-89
2021/03/25 13:17:19;;;;;;;36.83;20.67;;;;;;;;;;5063664;28;20029;-89
2021/03/25 13:19:45;;;;;;;42.97;21.08;;;;;;;;;;5056127;28;20029;-90
2021/03/25 13:22:11;;;;;;;40.55;20.95;;;;;;;;;;5056081;28;20044;-89
2021/03/25 13:24:37;;;;;;;45.17;22.23;;;;;;;;;;5072551;28;20496;-89
2021/03/25 13:27:04;;;;;;;43.35;20.88;;;;;;;;;;5055990;28;20025;-90
2021/03/25 13:29:30;;;;;;;42.20;22.27;;;;;;;;;;5058333;28;20059;-90
2021/03/25 13:31:56;;;;;;;35.95;20.10;;;;;;;;;;5056541;28;20040;-89
2021/03/25 13:34:22;;;;;;;43.08;22.75;;;;;;;;;;5053539;28;20029;-89
2021/03/25 13:36:48;;;;;;;41.75;22.23;;;;;;;;;;5072901;28;20102;-89
2021/03/25 13:39:14;;;;;;;40.85;21.92;;;;;;;;;;5056779;28;20025;-89
2021/03/25 13:41:40;;;;;;;35.88;20.15;;;;;;;;;;5055095;28;20033;-89
2021/03/25 13:44:06;;;;;;;40.17;21.30;;;;;;;;;;5054760;28;20032;-89
2021/03/25 13:46:39;;;;;;;41.03;21.35;;;;;;;;;;5056296;28;20033;-89
2021/03/25 13:49:05;;;;;;;;;;;;;;;;;;5054924;28;20431;-90
2021/03/25 13:51:31;;;;;;;38.88;20.25;;;;;;;;;;5054601;28;19909;-90
2021/03/25 13:53:57;;;;;;;42.42;21.08;;;;;;;;;;5055036;28;20464;-89
2021/03/25 13:56:23;;;;;;;45.22;23.40;;;;;;;;;;5071320;28;20036;-89
2021/03/25 13:58:49;;;;;;;37.53;20.23;;;;;;;;;;5054603;28;20025;-90
2021/03/25 14:01:15;;;;;;;38.50;21.42;;;;;;;;;;5053457;28;20083;-90
2021/03/25 14:03:41;;;;;;;45.67;21.92;;;;;;;;;;5052699;28;20029;-90
2021/03/25 14:06:07;;;;;;;37.83;19.77;;;;;;;;;;5062751;28;20025;-90
2021/03/25 14:08:33;;;;;;;38.97;19.38;;;;;;;;;;5070944;28;20035;-90
2021/03/25 14:10:59;;;;;;;41.85;21.77;;;;;;;;;;5062262;28;20025;-90
2021/03/25 14:13:25;;;;;;;38.35;20.48;;;;;;;;;;5056111;28;20029;-89
2021/03/25 14:15:52;;;;;;;51.03;23.80;;;;;;;;;;5042829;28;20472;-90
2021/03/25 14:18:24;;;;;;;44.55;21.05;;;;;;;;;;5055925;28;20037;-89
2021/03/25 14:20:50;;;;;;;37.45;21.10;;;;;;;;;;5054177;28;20021;-89
2021/03/25 14:23:18;;;;;;;41.92;20.50;;;;;;;;;;5054266;28;20051;-89
2021/03/25 14:25:45;;;;;;;34.88;19.00;;;;;;;;;;5057526;28;20020;-90
2021/03/25 14:28:12;;;;;;;36.90;19.60;;;;;;;;;;5056091;28;20032;-90
2021/03/25 14:30:38;;;;;;;40.45;19.88;;;;;;;;;;5072714;28;20533;-89
2021/03/25 14:33:05;;;;;;;41.15;20.45;;;;;;;;;;5056016;28;20029;-89
2021/03/25 14:35:32;;;;;;;34.70;20.10;;;;;;;;;;5054342;28;20082;-89
2021/03/25 14:37:59;;;;;;;37.28;21.35;;;;;;;;;;5054609;28;20055;-89
2021/03/25 14:40:25;;;;;;;40.88;19.38;;;;;;;;;;5067864;28;20074;-89